Time;durP1;ratioP1;P1;durP2;ratioP2;P2;SDS_P1;SDS_P2;PMS_P1;PMS_P2;Temp;Humidity;BMP_temperature;BMP_pressure;BME280_temperature;BME280_humidity;BME280_pressure;Samples;Min_cycle;Max_cycle;Signal;HPM_P1;HPM_P2
2023/09/23 00:01:04;;;;;;;21.67;11.25;;;;;;;;;;5112514;28;20058;-59
2023/09/23 00:03:30;;;;;;;22.13;11.80;;;;;;;;;;5096616;28;20043;-58
2023/09/23 00:05:58;;;;;;;18.70;11.18;;;;;;;;;;5096301;28;20058;-61
2023/09/23 00:08:24;;;;;;;21.98;11.57;;;;;;;;;;5110396;28;20050;-59
2023/09/23 00:10:50;;;;;;;22.58;10.93;;;;;;;;;;5112386;28;20031;-60
2023/09/23 00:13:17;;;;;;;21.48;11.00;;;;;;;;;;5114672;28;20089;-59
2023/09/23 00:15:43;;;;;;;22.33;11.18;;;;;;;;;;5113204;28;20028;-60
2023/09/23 00:18:09;;;;;;;21.10;11.15;;;;;;;;;;5114089;28;20404;-59
2023/09/23 00:20:36;;;;;;;22.88;10.90;;;;;;;;;;5106407;28;20048;-59
2023/09/23 00:23:05;;;;;;;21.25;10.70;;;;;;;;;;5095041;28;20031;-57
2023/09/23 00:25:31;;;;;;;22.73;10.52;;;;;;;;;;5114407;28;20513;-60
2023/09/23 00:27:56;;;;;;;24.15;11.55;;;;;;;;;;5110696;28;20118;-59
2023/09/23 00:30:26;;;;;;;26.70;11.45;;;;;;;;;;5093348;28;20032;-58
2023/09/23 00:32:52;;;;;;;20.90;10.05;;;;;;;;;;5111646;28;20105;-58
2023/09/23 00:35:18;;;;;;;22.73;10.95;;;;;;;;;;5096041;28;20031;-57
2023/09/23 00:37:50;;;;;;;22.67;10.98;;;;;;;;;;5114870;28;20039;-59
2023/09/23 00:40:27;;;;;;;20.08;9.95;;;;;;;;;;5109901;28;20039;-57
2023/09/23 00:42:55;;;;;;;22.20;10.63;;;;;;;;;;5111723;28;20045;-57
2023/09/23 00:45:22;;;;;;;20.45;9.90;;;;;;;;;;5113435;28;20471;-59
2023/09/23 00:47:47;;;;;;;21.40;10.50;;;;;;;;;;5109488;28;20419;-59
2023/09/23 00:50:18;;;;;;;20.10;10.27;;;;;;;;;;5110717;28;20039;-57
2023/09/23 00:52:47;;;;;;;19.40;9.98;;;;;;;;;;5114350;28;20020;-57
2023/09/23 00:55:13;;;;;;;20.75;11.32;;;;;;;;;;5110852;28;20115;-58
2023/09/23 00:57:41;;;;;;;22.88;11.55;;;;;;;;;;5114558;28;20024;-58
2023/09/23 01:00:11;;;;;;;22.33;10.70;;;;;;;;;;5110473;28;20685;-57
2023/09/23 01:02:37;;;;;;;26.13;11.18;;;;;;;;;;5095669;28;20035;-57
2023/09/23 01:05:04;;;;;;;25.05;10.57;;;;;;;;;;5109569;28;20039;-59
2023/09/23 01:07:31;;;;;;;23.42;11.60;;;;;;;;;;5087452;28;20468;-58
2023/09/23 01:09:57;;;;;;;22.85;11.07;;;;;;;;;;5092105;28;20040;-59
2023/09/23 01:12:22;;;;;;;21.30;11.13;;;;;;;;;;5093466;28;20046;-58
2023/09/23 01:14:48;;;;;;;22.67;11.68;;;;;;;;;;5112283;28;20032;-59
2023/09/23 01:17:15;;;;;;;23.95;11.93;;;;;;;;;;5111968;28;20059;-58
2023/09/23 01:19:41;;;;;;;25.70;11.70;;;;;;;;;;5107911;28;20051;-59
2023/09/23 01:22:08;;;;;;;25.27;12.32;;;;;;;;;;5094473;28;20152;-57
2023/09/23 01:24:34;;;;;;;25.23;12.02;;;;;;;;;;5111432;28;20106;-58
2023/09/23 01:27:00;;;;;;;23.10;11.82;;;;;;;;;;5110254;28;20474;-60
2023/09/23 01:29:26;;;;;;;24.45;11.80;;;;;;;;;;5092853;28;20027;-59
2023/09/23 01:32:07;;;;;;;26.15;11.98;;;;;;;;;;5109431;28;20037;-60
2023/09/23 01:34:32;;;;;;;22.80;11.98;;;;;;;;;;5113629;28;20027;-60
2023/09/23 01:36:58;;;;;;;24.73;11.77;;;;;;;;;;5112499;28;20118;-58
2023/09/23 01:39:24;;;;;;;22.13;11.45;;;;;;;;;;5113179;28;20348;-59
2023/09/23 01:41:53;;;;;;;21.73;10.70;;;;;;;;;;5075301;28;20492;-59
2023/09/23 01:44:19;;;;;;;22.05;10.85;;;;;;;;;;5110396;28;20059;-59
2023/09/23 01:46:45;;;;;;;19.27;10.13;;;;;;;;;;5110627;28;20066;-58
2023/09/23 01:49:10;;;;;;;22.42;10.73;;;;;;;;;;5111770;28;20744;-58
2023/09/23 01:51:35;;;;;;;20.17;10.68;;;;;;;;;;5110440;28;20039;-60
2023/09/23 01:54:03;;;;;;;20.08;10.32;;;;;;;;;;5111260;28;20031;-60
2023/09/23 01:56:30;;;;;;;21.00;10.10;;;;;;;;;;5109868;28;20028;-60
2023/09/23 01:58:56;;;;;;;21.20;9.65;;;;;;;;;;5090651;28;20650;-60
2023/09/23 02:01:21;;;;;;;19.48;9.75;;;;;;;;;;5106236;28;20075;-60
2023/09/23 02:03:47;;;;;;;16.70;9.23;;;;;;;;;;5108556;28;20024;-61
2023/09/23 02:06:12;;;;;;;17.90;8.95;;;;;;;;;;5104924;28;20843;-61
2023/09/23 02:08:38;;;;;;;19.55;9.55;;;;;;;;;;5111586;28;20027;-60
2023/09/23 02:11:03;;;;;;;16.58;8.95;;;;;;;;;;5110227;28;20088;-60
2023/09/23 02:13:28;;;;;;;18.00;8.98;;;;;;;;;;5111170;28;20031;-61
2023/09/23 02:15:56;;;;;;;17.33;8.48;;;;;;;;;;5111457;28;20043;-60
2023/09/23 02:18:22;;;;;;;18.83;10.05;;;;;;;;;;5112097;28;20054;-61
2023/09/23 02:20:47;;;;;;;20.42;9.65;;;;;;;;;;5107296;28;20128;-61
2023/09/23 02:23:13;;;;;;;19.15;10.02;;;;;;;;;;5110541;28;20039;-61
2023/09/23 02:25:38;;;;;;;19.13;9.98;;;;;;;;;;5110228;28;20383;-61
2023/09/23 02:28:04;;;;;;;20.70;9.80;;;;;;;;;;5111119;28;20085;-61
2023/09/23 02:30:32;;;;;;;20.63;9.40;;;;;;;;;;5110302;28;20032;-61
2023/09/23 02:32:58;;;;;;;18.75;8.52;;;;;;;;;;5110490;28;20073;-60
2023/09/23 02:35:25;;;;;;;16.77;8.70;;;;;;;;;;5112758;28;20104;-60
2023/09/23 02:37:50;;;;;;;16.50;7.85;;;;;;;;;;5108864;28;20036;-59
2023/09/23 02:40:17;;;;;;;14.10;8.02;;;;;;;;;;5108742;28;20369;-59
2023/09/23 02:42:44;;;;;;;17.85;8.00;;;;;;;;;;5111663;28;20059;-60
2023/09/23 02:45:12;;;;;;;19.15;7.97;;;;;;;;;;5109706;28;20055;-59
2023/09/23 02:47:39;;;;;;;15.10;7.95;;;;;;;;;;5109194;28;20444;-59
2023/09/23 02:50:09;;;;;;;14.25;7.05;;;;;;;;;;5110633;28;20036;-62
2023/09/23 02:52:38;;;;;;;14.60;7.47;;;;;;;;;;5111072;28;20035;-60
2023/09/23 02:55:07;;;;;;;12.80;7.57;;;;;;;;;;5091305;28;20035;-60
2023/09/23 02:57:36;;;;;;;13.82;7.97;;;;;;;;;;5062974;28;20464;-60
2023/09/23 03:00:13;;;;;;;12.90;7.65;;;;;;;;;;5090450;28;20468;-61
2023/09/23 03:02:39;;;;;;;14.52;7.53;;;;;;;;;;5096485;28;20045;-61
2023/09/23 03:05:07;;;;;;;13.63;7.97;;;;;;;;;;5107110;28;20110;-61
2023/09/23 03:07:33;;;;;;;13.68;7.75;;;;;;;;;;5109452;28;20024;-61
2023/09/23 03:10:01;;;;;;;13.85;7.80;;;;;;;;;;5108362;28;20049;-61
2023/09/23 03:12:40;;;;;;;12.60;7.38;;;;;;;;;;5111598;28;20039;-60
2023/09/23 03:15:14;;;;;;;14.05;7.53;;;;;;;;;;5090021;28;20070;-62
2023/09/23 03:17:50;;;;;;;13.60;8.38;;;;;;;;;;5104133;28;20028;-61
2023/09/23 03:20:25;;;;;;;13.90;7.85;;;;;;;;;;5091982;28;20332;-61
2023/09/23 03:22:50;;;;;;;10.60;6.60;;;;;;;;;;5108670;28;20035;-61
2023/09/23 03:25:20;;;;;;;14.20;8.20;;;;;;;;;;5106288;28;20116;-61
2023/09/23 03:27:51;;;;;;;14.18;7.82;;;;;;;;;;5092393;28;20035;-60
2023/09/23 03:30:17;;;;;;;;;;;;;;;;;;5109388;28;20043;-61
2023/09/23 03:32:43;;;;;;;13.60;7.40;;;;;;;;;;5112435;28;19908;-61
2023/09/23 03:35:13;;;;;;;13.52;7.80;;;;;;;;;;5108007;28;20480;-62
2023/09/23 03:37:39;;;;;;;12.23;7.75;;;;;;;;;;5101380;28;20110;-61
2023/09/23 03:40:07;;;;;;;14.27;6.68;;;;;;;;;;5109291;28;20118;-60
2023/09/23 03:42:33;;;;;;;11.93;7.55;;;;;;;;;;5110348;28;20065;-61
2023/09/23 03:44:58;;;;;;;14.75;7.63;;;;;;;;;;5109130;28;20194;-61
2023/09/23 03:47:25;;;;;;;13.25;7.15;;;;;;;;;;5097909;28;20039;-65
2023/09/23 03:49:51;;;;;;;11.95;7.05;;;;;;;;;;5109518;28;20551;-63
2023/09/23 03:52:17;;;;;;;11.63;6.88;;;;;;;;;;5100462;28;20149;-61
2023/09/23 03:54:42;;;;;;;11.13;6.47;;;;;;;;;;5107860;28;20112;-61
2023/09/23 03:57:07;;;;;;;17.75;6.70;;;;;;;;;;5109020;28;20024;-61
2023/09/23 03:59:35;;;;;;;11.82;6.50;;;;;;;;;;5110647;28;20055;-61
2023/09/23 04:02:00;;;;;;;12.35;5.97;;;;;;;;;;5111083;28;20030;-61
2023/09/23 04:04:25;;;;;;;5.45;3.28;;;;;;;;;;5105708;28;20036;-61
2023/09/23 04:06:51;;;;;;;9.02;4.97;;;;;;;;;;5109058;28;20042;-62
2023/09/23 04:09:16;;;;;;;8.90;5.22;;;;;;;;;;5108607;28;20089;-61
2023/09/23 04:11:46;;;;;;;7.82;4.93;;;;;;;;;;5110559;28;20418;-61
2023/09/23 04:14:11;;;;;;;7.97;4.38;;;;;;;;;;5089014;28;20032;-59
2023/09/23 04:16:37;;;;;;;9.35;4.80;;;;;;;;;;5111815;28;20046;-59
2023/09/23 04:19:03;;;;;;;9.82;4.50;;;;;;;;;;5108599;28;20061;-59
2023/09/23 04:21:30;;;;;;;10.15;4.95;;;;;;;;;;5102294;28;20028;-60
2023/09/23 04:23:55;;;;;;;9.82;4.15;;;;;;;;;;5090842;28;20066;-58
2023/09/23 04:26:21;;;;;;;6.82;3.95;;;;;;;;;;5102631;28;20078;-59
2023/09/23 04:28:52;;;;;;;8.50;3.58;;;;;;;;;;5114205;28;20127;-57
2023/09/23 04:31:19;;;;;;;6.93;3.53;;;;;;;;;;5113680;28;20542;-57
2023/09/23 04:33:47;;;;;;;7.60;3.15;;;;;;;;;;5113986;28;20118;-55
2023/09/23 04:36:12;;;;;;;7.68;3.35;;;;;;;;;;5114257;28;20020;-57
2023/09/23 04:38:38;;;;;;;8.93;3.40;;;;;;;;;;5113695;28;20027;-57
2023/09/23 04:41:05;;;;;;;5.75;3.40;;;;;;;;;;5109492;28;20039;-57
2023/09/23 04:43:31;;;;;;;6.78;3.30;;;;;;;;;;5108415;28;20031;-58
2023/09/23 04:45:57;;;;;;;9.65;3.70;;;;;;;;;;5114355;28;20035;-58
2023/09/23 04:48:24;;;;;;;7.85;3.78;;;;;;;;;;5113316;28;20159;-56
2023/09/23 04:50:52;;;;;;;7.78;3.55;;;;;;;;;;5113135;28;20081;-58
2023/09/23 04:53:18;;;;;;;7.65;3.78;;;;;;;;;;5111083;28;20084;-57
2023/09/23 04:55:45;;;;;;;6.63;3.35;;;;;;;;;;5112849;28;20043;-57
2023/09/23 04:58:12;;;;;;;7.90;3.85;;;;;;;;;;5107498;28;20027;-55
2023/09/23 05:00:41;;;;;;;6.97;3.45;;;;;;;;;;5110125;28;20030;-59
2023/09/23 05:03:08;;;;;;;9.13;3.67;;;;;;;;;;5097467;28;20104;-57
2023/09/23 05:05:34;;;;;;;8.52;3.47;;;;;;;;;;5111267;28;20032;-55
2023/09/23 05:08:00;;;;;;;12.27;4.38;;;;;;;;;;5095550;28;20487;-57
2023/09/23 05:10:26;;;;;;;9.10;3.95;;;;;;;;;;5112011;28;20031;-56
2023/09/23 05:12:55;;;;;;;10.40;4.53;;;;;;;;;;5112446;28;20395;-56
2023/09/23 05:15:21;;;;;;;6.75;3.63;;;;;;;;;;5113918;28;20177;-55
2023/09/23 05:17:49;;;;;;;7.32;4.30;;;;;;;;;;5113760;28;20111;-59
2023/09/23 05:20:25;;;;;;;7.03;3.90;;;;;;;;;;5112673;28;20392;-58
2023/09/23 05:22:51;;;;;;;9.48;4.70;;;;;;;;;;5108010;28;20047;-59
2023/09/23 05:25:16;;;;;;;9.07;4.50;;;;;;;;;;5110873;28;20039;-58
2023/09/23 05:27:44;;;;;;;10.60;4.80;;;;;;;;;;5112551;28;20034;-57
2023/09/23 05:30:11;;;;;;;8.85;4.72;;;;;;;;;;5112397;28;20032;-58
2023/09/23 05:32:37;;;;;;;11.40;4.82;;;;;;;;;;5111889;28;20035;-57
2023/09/23 05:35:09;;;;;;;10.35;5.30;;;;;;;;;;5112763;28;20107;-60
2023/09/23 05:37:42;;;;;;;12.35;5.35;;;;;;;;;;5114037;28;20043;-57
2023/09/23 05:40:27;;;;;;;9.18;4.88;;;;;;;;;;5111744;28;20110;-57
2023/09/23 05:42:53;;;;;;;10.45;4.75;;;;;;;;;;5109850;28;20035;-58
2023/09/23 05:45:22;;;;;;;8.98;5.05;;;;;;;;;;5110758;28;20028;-58
2023/09/23 05:47:48;;;;;;;9.02;4.65;;;;;;;;;;5107455;28;20024;-57
2023/09/23 05:50:17;;;;;;;10.45;4.90;;;;;;;;;;5098195;28;20433;-57
2023/09/23 05:52:45;;;;;;;9.93;4.45;;;;;;;;;;5106447;28;20046;-55
2023/09/23 05:55:11;;;;;;;10.35;4.65;;;;;;;;;;5112502;28;20157;-56
2023/09/23 05:57:38;;;;;;;10.70;5.07;;;;;;;;;;5112985;28;20428;-55
2023/09/23 06:00:07;;;;;;;7.00;4.28;;;;;;;;;;5110810;28;20113;-58
2023/09/23 06:02:34;;;;;;;11.48;5.13;;;;;;;;;;5094172;28;20377;-56
2023/09/23 06:05:01;;;;;;;6.53;4.22;;;;;;;;;;5113347;28;20030;-57
2023/09/23 06:07:27;;;;;;;9.75;4.75;;;;;;;;;;5094445;28;20114;-56
2023/09/23 06:09:52;;;;;;;8.50;5.05;;;;;;;;;;5101524;28;20031;-57
2023/09/23 06:12:18;;;;;;;10.75;5.20;;;;;;;;;;5111326;28;20036;-58
2023/09/23 06:14:43;;;;;;;12.05;5.10;;;;;;;;;;5094204;28;20035;-58
2023/09/23 06:17:09;;;;;;;9.80;4.55;;;;;;;;;;5112465;28;20115;-59
2023/09/23 06:19:34;;;;;;;9.63;4.85;;;;;;;;;;5094644;28;20044;-57
2023/09/23 06:22:00;;;;;;;7.78;5.22;;;;;;;;;;5111102;28;20375;-57
2023/09/23 06:24:25;;;;;;;9.40;5.70;;;;;;;;;;5112101;28;20024;-57
2023/09/23 06:26:50;;;;;;;8.10;5.18;;;;;;;;;;5112991;28;20110;-58
2023/09/23 06:29:16;;;;;;;10.30;5.35;;;;;;;;;;5111912;28;20119;-58
2023/09/23 06:31:41;;;;;;;10.43;5.40;;;;;;;;;;5110705;28;20490;-56
2023/09/23 06:34:07;;;;;;;8.40;5.30;;;;;;;;;;5112044;28;20031;-58
2023/09/23 06:36:33;;;;;;;9.07;5.32;;;;;;;;;;5091093;28;20077;-58
2023/09/23 06:38:59;;;;;;;9.70;5.53;;;;;;;;;;5112756;28;20035;-56
2023/09/23 06:41:24;;;;;;;12.52;6.03;;;;;;;;;;5091801;28;20059;-56
2023/09/23 06:43:51;;;;;;;10.20;5.03;;;;;;;;;;5112725;28;20106;-58
2023/09/23 06:46:16;;;;;;;12.88;5.75;;;;;;;;;;5111717;28;20068;-58
2023/09/23 06:48:42;;;;;;;9.93;5.40;;;;;;;;;;5112599;28;20039;-58
2023/09/23 06:51:08;;;;;;;9.70;5.22;;;;;;;;;;5110740;28;20076;-58
2023/09/23 06:53:34;;;;;;;13.23;5.35;;;;;;;;;;5110892;28;20080;-58
2023/09/23 06:56:00;;;;;;;10.43;5.65;;;;;;;;;;5112766;28;20430;-57
2023/09/23 06:58:25;;;;;;;9.77;5.68;;;;;;;;;;5112056;28;20020;-57
2023/09/23 07:00:57;;;;;;;13.40;6.22;;;;;;;;;;5113342;28;20548;-58
2023/09/23 07:03:23;;;;;;;10.43;6.35;;;;;;;;;;5111062;28;20059;-55
2023/09/23 07:05:48;;;;;;;12.18;6.40;;;;;;;;;;5094116;28;20051;-57
2023/09/23 07:08:13;;;;;;;12.48;6.20;;;;;;;;;;5079982;28;20032;-57
2023/09/23 07:10:40;;;;;;;9.82;6.82;;;;;;;;;;5104866;28;20031;-56
2023/09/23 07:13:06;;;;;;;12.77;7.20;;;;;;;;;;5112359;28;20028;-55
2023/09/23 07:15:36;;;;;;;8.65;5.47;;;;;;;;;;5093211;28;20384;-54
2023/09/23 07:18:03;;;;;;;12.45;7.05;;;;;;;;;;5111431;28;20375;-57
2023/09/23 07:20:28;;;;;;;11.35;7.00;;;;;;;;;;5092651;28;20052;-55
2023/09/23 07:22:54;;;;;;;9.65;7.07;;;;;;;;;;5089148;28;20030;-60
2023/09/23 07:25:19;;;;;;;15.45;7.90;;;;;;;;;;5109285;28;20476;-58
2023/09/23 07:27:46;;;;;;;10.07;5.75;;;;;;;;;;5093490;28;20028;-58
2023/09/23 07:30:12;;;;;;;12.30;6.82;;;;;;;;;;5110077;28;20028;-60
2023/09/23 07:32:37;;;;;;;16.15;6.85;;;;;;;;;;5110742;28;20080;-58
2023/09/23 07:35:03;;;;;;;11.05;7.18;;;;;;;;;;5111947;28;20028;-59
2023/09/23 07:37:29;;;;;;;14.02;6.63;;;;;;;;;;5086467;28;20100;-58
2023/09/23 07:39:57;;;;;;;10.15;5.93;;;;;;;;;;5112056;28;20020;-57
2023/09/23 07:42:23;;;;;;;11.55;7.00;;;;;;;;;;5110775;28;20023;-59
2023/09/23 07:44:48;;;;;;;10.70;5.90;;;;;;;;;;5112120;28;20120;-60
2023/09/23 07:47:14;;;;;;;11.35;6.53;;;;;;;;;;5105894;28;20028;-59
2023/09/23 07:49:39;;;;;;;11.60;6.88;;;;;;;;;;5095672;28;20024;-59
2023/09/23 07:52:05;;;;;;;12.27;6.38;;;;;;;;;;5095111;28;20492;-58
2023/09/23 07:54:30;;;;;;;11.38;6.60;;;;;;;;;;5102966;28;20083;-60
2023/09/23 07:56:56;;;;;;;8.80;6.05;;;;;;;;;;5104542;28;20402;-59
2023/09/23 07:59:21;;;;;;;12.18;7.65;;;;;;;;;;5110753;28;20460;-59
2023/09/23 08:01:47;;;;;;;12.80;7.03;;;;;;;;;;5111888;28;20027;-59
2023/09/23 08:04:12;;;;;;;9.10;5.32;;;;;;;;;;5112750;28;20031;-60
2023/09/23 08:06:38;;;;;;;10.40;6.95;;;;;;;;;;5095685;28;20080;-59
2023/09/23 08:09:05;;;;;;;11.13;7.65;;;;;;;;;;5114128;28;20040;-60
2023/09/23 08:11:31;;;;;;;13.07;7.72;;;;;;;;;;5114715;28;20035;-59
2023/09/23 08:13:57;;;;;;;13.07;7.85;;;;;;;;;;5115171;28;20031;-60
2023/09/23 08:16:22;;;;;;;12.07;7.75;;;;;;;;;;5112527;28;20036;-60
2023/09/23 08:18:48;;;;;;;11.75;8.00;;;;;;;;;;5115627;28;20073;-60
2023/09/23 08:21:15;;;;;;;12.55;7.72;;;;;;;;;;5114573;28;20051;-64
2023/09/23 08:23:41;;;;;;;12.60;7.28;;;;;;;;;;5115545;28;20019;-58
2023/09/23 08:26:06;;;;;;;12.55;7.78;;;;;;;;;;5115438;28;20478;-59
2023/09/23 08:28:32;;;;;;;12.15;7.47;;;;;;;;;;5112375;28;20118;-59
2023/09/23 08:30:57;;;;;;;12.65;6.88;;;;;;;;;;5113179;28;20039;-60
2023/09/23 08:33:22;;;;;;;13.10;7.32;;;;;;;;;;5112926;28;20058;-60
2023/09/23 08:35:48;;;;;;;11.60;7.32;;;;;;;;;;5115127;28;20059;-60
2023/09/23 08:38:14;;;;;;;11.63;7.15;;;;;;;;;;5113135;28;20476;-60
2023/09/23 08:40:43;;;;;;;10.65;7.18;;;;;;;;;;5114416;28;20460;-60
2023/09/23 08:43:08;;;;;;;11.85;6.85;;;;;;;;;;5114536;28;20050;-59
2023/09/23 08:45:42;;;;;;;10.73;6.60;;;;;;;;;;5113132;28;20028;-60
2023/09/23 08:48:09;;;;;;;12.70;7.15;;;;;;;;;;5114662;28;20459;-57
2023/09/23 08:50:36;;;;;;;10.20;6.75;;;;;;;;;;5114556;28;20218;-58
2023/09/23 08:53:06;;;;;;;9.32;6.68;;;;;;;;;;5096855;28;20384;-59
2023/09/23 08:55:33;;;;;;;10.00;6.35;;;;;;;;;;5114190;28;20038;-58
2023/09/23 08:58:02;;;;;;;10.40;6.95;;;;;;;;;;5112834;28;20419;-59
2023/09/23 09:00:29;;;;;;;14.25;6.78;;;;;;;;;;5113878;28;20036;-59
2023/09/23 09:02:54;;;;;;;10.10;6.55;;;;;;;;;;5114536;28;20031;-58
2023/09/23 09:05:20;;;;;;;10.57;6.07;;;;;;;;;;5112488;28;20028;-57
2023/09/23 09:07:46;;;;;;;10.95;6.20;;;;;;;;;;5113329;28;20031;-59
2023/09/23 09:10:11;;;;;;;9.07;5.75;;;;;;;;;;5095735;28;20099;-58
2023/09/23 09:12:37;;;;;;;14.13;5.57;;;;;;;;;;5111167;28;20291;-59
2023/09/23 09:15:03;;;;;;;8.43;5.93;;;;;;;;;;5107996;28;20035;-59
2023/09/23 09:17:33;;;;;;;11.32;5.40;;;;;;;;;;5110430;28;20035;-55
2023/09/23 09:20:09;;;;;;;8.02;5.30;;;;;;;;;;5095397;28;20052;-57
2023/09/23 09:22:36;;;;;;;5.57;4.55;;;;;;;;;;5076946;28;20209;-57
2023/09/23 09:25:04;;;;;;;11.23;4.88;;;;;;;;;;5098632;28;20079;-56
2023/09/23 09:27:30;;;;;;;6.95;4.90;;;;;;;;;;5092995;28;20036;-56
2023/09/23 09:29:55;;;;;;;10.20;5.20;;;;;;;;;;5075748;28;20039;-56
2023/09/23 09:32:26;;;;;;;9.00;4.70;;;;;;;;;;5084018;28;20368;-58
2023/09/23 09:34:54;;;;;;;8.45;4.60;;;;;;;;;;5093913;28;20723;-57
2023/09/23 09:37:23;;;;;;;7.68;4.50;;;;;;;;;;5092614;28;20103;-57
2023/09/23 09:39:53;;;;;;;8.10;4.60;;;;;;;;;;5105031;28;20027;-57
2023/09/23 09:42:39;;;;;;;6.32;3.92;;;;;;;;;;5112307;28;20388;-57
2023/09/23 09:45:09;;;;;;;8.30;4.18;;;;;;;;;;5113842;28;20032;-59
2023/09/23 09:47:36;;;;;;;8.75;4.25;;;;;;;;;;5093845;28;20028;-58
2023/09/23 09:50:04;;;;;;;9.25;3.83;;;;;;;;;;5111396;28;20050;-58
2023/09/23 09:52:32;;;;;;;9.18;3.72;;;;;;;;;;5111566;28;20415;-58
2023/09/23 09:55:03;;;;;;;8.02;3.47;;;;;;;;;;5113857;28;20027;-57
2023/09/23 09:57:29;;;;;;;5.47;3.50;;;;;;;;;;5094462;28;20080;-59
2023/09/23 10:02:47;;;;;;;4.72;3.30;;;;;;;;;;5112597;28;20038;-57
2023/09/23 10:05:17;;;;;;;7.85;3.83;;;;;;;;;;5113675;28;20111;-58
2023/09/23 10:07:57;;;;;;;7.22;3.42;;;;;;;;;;5112916;28;20065;-58
2023/09/23 10:10:39;;;;;;;6.13;3.40;;;;;;;;;;5090193;28;20042;-56
2023/09/23 10:13:08;;;;;;;6.15;3.33;;;;;;;;;;5113085;28;20380;-62
2023/09/23 10:15:40;;;;;;;7.72;3.20;;;;;;;;;;5100338;28;20100;-61
2023/09/23 10:18:17;;;;;;;7.82;3.30;;;;;;;;;;5109015;28;20579;-60
2023/09/23 10:20:48;;;;;;;7.78;3.20;;;;;;;;;;5111072;28;20078;-60
2023/09/23 10:23:15;;;;;;;6.20;3.05;;;;;;;;;;5109765;28;20031;-60
2023/09/23 10:25:45;;;;;;;5.70;3.00;;;;;;;;;;5091838;28;20126;-60
2023/09/23 10:28:24;;;;;;;4.68;2.80;;;;;;;;;;5113172;28;20028;-59
2023/09/23 10:31:04;;;;;;;7.57;3.30;;;;;;;;;;5113183;28;20475;-60
2023/09/23 10:33:31;;;;;;;4.72;2.80;;;;;;;;;;5092696;28;20039;-59
2023/09/23 10:35:58;;;;;;;4.85;2.83;;;;;;;;;;5112717;28;20020;-59
2023/09/23 10:38:25;;;;;;;6.03;2.78;;;;;;;;;;5112458;28;20353;-60
2023/09/23 10:40:52;;;;;;;6.68;2.90;;;;;;;;;;5094371;28;20023;-60
2023/09/23 10:43:21;;;;;;;5.97;3.25;;;;;;;;;;5094722;28;20372;-60
2023/09/23 10:45:48;;;;;;;6.32;3.42;;;;;;;;;;5111003;28;20495;-59
2023/09/23 10:48:14;;;;;;;7.63;3.30;;;;;;;;;;5092015;28;20031;-58
2023/09/23 10:50:40;;;;;;;5.82;3.15;;;;;;;;;;5101071;28;20315;-58
2023/09/23 10:53:07;;;;;;;6.38;2.95;;;;;;;;;;5074281;28;20039;-59
2023/09/23 10:55:34;;;;;;;5.47;2.85;;;;;;;;;;5072991;28;20469;-58
2023/09/23 10:58:00;;;;;;;5.90;2.65;;;;;;;;;;5092283;28;20077;-59
2023/09/23 11:00:28;;;;;;;5.93;2.75;;;;;;;;;;5077548;28;20036;-60
2023/09/23 11:02:54;;;;;;;7.22;2.90;;;;;;;;;;5086117;28;20035;-60
2023/09/23 11:05:21;;;;;;;4.68;2.90;;;;;;;;;;5092132;28;20483;-60
2023/09/23 11:07:47;;;;;;;10.48;2.90;;;;;;;;;;5074644;28;20032;-59
2023/09/23 11:10:13;;;;;;;6.40;2.85;;;;;;;;;;5096456;28;20054;-60
2023/09/23 11:12:43;;;;;;;5.18;2.88;;;;;;;;;;5111472;28;20035;-59
2023/09/23 11:15:11;;;;;;;7.93;3.28;;;;;;;;;;5111655;28;20365;-60
2023/09/23 11:17:40;;;;;;;7.03;2.80;;;;;;;;;;5111486;28;20085;-61
2023/09/23 11:20:10;;;;;;;6.10;2.80;;;;;;;;;;5111923;28;20080;-61
2023/09/23 11:22:37;;;;;;;5.65;2.50;;;;;;;;;;5111609;28;20028;-60
2023/09/23 11:25:08;;;;;;;5.70;2.70;;;;;;;;;;5110682;28;20035;-60
2023/09/23 11:27:34;;;;;;;5.30;2.70;;;;;;;;;;5111467;28;20034;-59
2023/09/23 11:30:00;;;;;;;6.28;2.47;;;;;;;;;;5111449;28;20380;-59
2023/09/23 11:32:26;;;;;;;3.70;2.22;;;;;;;;;;5109526;28;20038;-59
2023/09/23 11:34:53;;;;;;;4.97;2.30;;;;;;;;;;5091135;28;20023;-60
2023/09/23 11:37:22;;;;;;;4.13;2.00;;;;;;;;;;5114284;28;20035;-60
2023/09/23 11:39:49;;;;;;;4.07;2.30;;;;;;;;;;5113714;28;20035;-59
2023/09/23 11:42:15;;;;;;;4.00;2.30;;;;;;;;;;5116146;28;20031;-60
2023/09/23 11:44:40;;;;;;;5.28;2.10;;;;;;;;;;5115143;28;20039;-60
2023/09/23 11:47:06;;;;;;;6.78;2.40;;;;;;;;;;5115202;28;20059;-60
2023/09/23 11:49:31;;;;;;;4.70;2.20;;;;;;;;;;5114595;28;20027;-60
2023/09/23 11:51:57;;;;;;;5.28;2.05;;;;;;;;;;5116140;28;20076;-60
2023/09/23 11:54:23;;;;;;;3.83;1.75;;;;;;;;;;5097563;28;20028;-60
2023/09/23 11:56:48;;;;;;;4.07;2.20;;;;;;;;;;5114912;28;20463;-59
2023/09/23 11:59:14;;;;;;;8.60;2.28;;;;;;;;;;5114090;28;20130;-59
2023/09/23 12:01:40;;;;;;;5.47;2.50;;;;;;;;;;5096804;28;20502;-59
2023/09/23 12:04:06;;;;;;;5.82;2.15;;;;;;;;;;5114966;28;20032;-59
2023/09/23 12:06:35;;;;;;;5.88;2.13;;;;;;;;;;5114977;28;20425;-60
2023/09/23 12:09:02;;;;;;;6.03;1.90;;;;;;;;;;5114821;28;20379;-61
2023/09/23 12:11:28;;;;;;;8.00;2.25;;;;;;;;;;5114629;28;20368;-60
2023/09/23 12:13:53;;;;;;;3.25;2.15;;;;;;;;;;5093409;28;20028;-61
2023/09/23 12:16:19;;;;;;;5.25;2.25;;;;;;;;;;5076965;28;20032;-59
2023/09/23 12:18:47;;;;;;;5.00;2.20;;;;;;;;;;5097324;28;20035;-59
2023/09/23 12:21:16;;;;;;;5.10;2.00;;;;;;;;;;5093762;28;20048;-60
2023/09/23 12:23:42;;;;;;;3.25;1.92;;;;;;;;;;5092856;28;20032;-60
2023/09/23 12:26:09;;;;;;;6.28;2.35;;;;;;;;;;5095469;28;20419;-60
2023/09/23 12:28:35;;;;;;;5.50;2.10;;;;;;;;;;5090893;28;20028;-60
2023/09/23 12:31:01;;;;;;;6.85;2.17;;;;;;;;;;5094996;28;20059;-58
2023/09/23 12:33:27;;;;;;;3.35;2.00;;;;;;;;;;5078057;28;20465;-60
2023/09/23 12:35:52;;;;;;;6.10;2.10;;;;;;;;;;5073957;28;20496;-55
2023/09/23 12:38:18;;;;;;;4.35;2.20;;;;;;;;;;5079799;28;20599;-60
2023/09/23 12:40:43;;;;;;;4.13;2.22;;;;;;;;;;5078889;28;20051;-63
2023/09/23 12:43:10;;;;;;;3.58;2.13;;;;;;;;;;5091779;28;20036;-55
2023/09/23 12:45:37;;;;;;;6.00;2.10;;;;;;;;;;5093396;28;20030;-57
2023/09/23 12:48:03;;;;;;;3.47;1.75;;;;;;;;;;5092703;28;20028;-56
2023/09/23 12:50:28;;;;;;;5.40;1.80;;;;;;;;;;5093661;28;20039;-58
2023/09/23 12:52:57;;;;;;;3.58;1.90;;;;;;;;;;5093648;28;20035;-55
2023/09/23 12:55:23;;;;;;;3.03;1.70;;;;;;;;;;5094436;28;20024;-57
2023/09/23 12:57:48;;;;;;;6.80;2.25;;;;;;;;;;5089231;28;20032;-57
2023/09/23 13:00:14;;;;;;;3.92;1.80;;;;;;;;;;5093397;28;20499;-58
2023/09/23 13:02:40;;;;;;;5.18;1.90;;;;;;;;;;5093536;28;20112;-57
2023/09/23 13:05:05;;;;;;;4.13;1.83;;;;;;;;;;5094032;28;20115;-57
2023/09/23 13:07:31;;;;;;;6.88;2.65;;;;;;;;;;5093470;28;20078;-58
2023/09/23 13:09:56;;;;;;;4.68;1.80;;;;;;;;;;5091170;28;20505;-53
2023/09/23 13:12:22;;;;;;;5.13;1.80;;;;;;;;;;5093829;28;20448;-57
2023/09/23 13:14:47;;;;;;;2.65;1.77;;;;;;;;;;5093097;28;20115;-56
2023/09/23 13:17:12;;;;;;;4.13;1.70;;;;;;;;;;5092802;28;20492;-54
2023/09/23 13:19:39;;;;;;;7.78;2.10;;;;;;;;;;5095811;28;20051;-57
2023/09/23 13:22:05;;;;;;;5.85;1.60;;;;;;;;;;5114459;28;20040;-58
2023/09/23 13:24:31;;;;;;;3.55;1.67;;;;;;;;;;5112969;28;20051;-58
2023/09/23 13:26:56;;;;;;;5.82;1.85;;;;;;;;;;5094558;28;20027;-58
2023/09/23 13:29:22;;;;;;;3.75;1.95;;;;;;;;;;5112464;28;20035;-57
2023/09/23 13:31:47;;;;;;;4.25;1.50;;;;;;;;;;5113349;28;20039;-56
2023/09/23 13:34:14;;;;;;;6.25;1.77;;;;;;;;;;5114246;28;20368;-57
2023/09/23 13:36:39;;;;;;;4.07;1.60;;;;;;;;;;5112924;28;20024;-56
2023/09/23 13:39:04;;;;;;;3.60;1.80;;;;;;;;;;5113957;28;20134;-56
2023/09/23 13:41:30;;;;;;;4.82;1.90;;;;;;;;;;5112650;28;20107;-55
2023/09/23 13:43:56;;;;;;;3.72;1.80;;;;;;;;;;5113150;28;20093;-54
2023/09/23 13:46:21;;;;;;;4.07;1.77;;;;;;;;;;5113714;28;20031;-53
2023/09/23 13:48:47;;;;;;;3.80;2.00;;;;;;;;;;5094721;28;20144;-57
2023/09/23 13:51:12;;;;;;;4.93;1.88;;;;;;;;;;5113819;28;20119;-59
2023/09/23 13:53:38;;;;;;;3.17;1.80;;;;;;;;;;5094283;28;20122;-58
2023/09/23 13:56:03;;;;;;;3.67;2.00;;;;;;;;;;5112877;28;20035;-59
2023/09/23 13:58:29;;;;;;;5.15;1.80;;;;;;;;;;5113774;28;20110;-57
2023/09/23 14:00:54;;;;;;;4.55;1.98;;;;;;;;;;5111706;28;20030;-58
2023/09/23 14:03:21;;;;;;;3.05;1.80;;;;;;;;;;5094981;28;20076;-58
2023/09/23 14:05:47;;;;;;;4.43;1.98;;;;;;;;;;5112669;28;20055;-57
2023/09/23 14:08:12;;;;;;;5.97;1.90;;;;;;;;;;5113343;28;20066;-58
2023/09/23 14:10:38;;;;;;;5.35;2.05;;;;;;;;;;5110649;28;20035;-58
2023/09/23 14:13:04;;;;;;;5.95;2.20;;;;;;;;;;5112036;28;20023;-54
2023/09/23 14:15:30;;;;;;;6.65;1.80;;;;;;;;;;5112030;28;20027;-54
2023/09/23 14:17:56;;;;;;;4.90;1.63;;;;;;;;;;5113422;28;20046;-57
2023/09/23 14:20:21;;;;;;;7.15;2.17;;;;;;;;;;5110299;28;20043;-57
2023/09/23 14:22:48;;;;;;;4.82;2.05;;;;;;;;;;5112852;28;20051;-58
2023/09/23 14:25:14;;;;;;;4.80;2.00;;;;;;;;;;5094842;28;20032;-57
2023/09/23 14:27:40;;;;;;;4.35;1.80;;;;;;;;;;5112268;28;20038;-56
2023/09/23 14:30:08;;;;;;;5.15;1.85;;;;;;;;;;5095014;28;20032;-57
2023/09/23 14:32:34;;;;;;;3.35;1.77;;;;;;;;;;5094098;28;20027;-57
2023/09/23 14:35:00;;;;;;;7.03;1.90;;;;;;;;;;5111038;28;20040;-57
2023/09/23 14:37:26;;;;;;;3.30;1.85;;;;;;;;;;5110823;28;20085;-58